Time;durP1;ratioP1;P1;durP2;ratioP2;P2;SDS_P1;SDS_P2;PMS_P1;PMS_P2;Temp;Humidity;BMP_temperature;BMP_pressure;BME280_temperature;BME280_humidity;BME280_pressure;Samples;Min_cycle;Max_cycle;Signal;HPM_P1;HPM_P2
2024/03/13 00:02:10;;;;;;;;;;;;;;;5.83;100.00;100873.91;6154637;23;19917;-75
2024/03/13 00:04:43;;;;;;;;;;;;;;;5.86;100.00;100873.59;6152601;23;19923;-76
2024/03/13 00:07:18;;;;;;;;;;;;;;;5.80;100.00;100868.94;6153514;23;19917;-75
2024/03/13 00:09:45;;;;;;;;;;;;;;;5.75;100.00;100871.25;6154208;23;19951;-75
2024/03/13 00:12:16;;;;;;;;;;;;;;;5.75;100.00;100871.25;6152486;23;20295;-75
2024/03/13 00:14:42;;;;;;;;;;;;;;;5.85;100.00;100873.78;6153614;23;20372;-75
2024/03/13 00:17:07;;;;;;;;;;;;;;;5.82;100.00;100874.94;6164941;23;19916;-73
2024/03/13 00:19:33;;;;;;;;;;;;;;;5.88;100.00;100873.44;6163963;23;19903;-74
2024/03/13 00:22:00;;;;;;;;;;;;;;;5.88;100.00;100866.25;6156629;23;20351;-75
2024/03/13 00:24:26;;;;;;;;;;;;;;;5.83;100.00;100868.56;6156711;23;19921;-75
2024/03/13 00:26:51;;;;;;;;;;;;;;;5.88;100.00;100873.44;6154974;23;19916;-74
2024/03/13 00:29:17;;;;;;;;;;;;;;;6.00;100.00;100868.66;6155087;23;20439;-74
2024/03/13 00:31:44;;;;;;;;;;;;;;;5.87;100.00;100867.25;6154594;23;19974;-76
2024/03/13 00:34:10;;;;;;;;;;;;;;;5.84;100.00;100872.09;6154962;23;19916;-75
2024/03/13 00:36:37;;;;;;;;;;;;;;;5.79;100.00;100871.75;6154698;23;20310;-75
2024/03/13 00:39:02;;;;;;;;;;;;;;;5.94;100.00;100877.28;6155085;23;20321;-75
2024/03/13 00:41:27;;;;;;;;;;;;;;;5.88;100.00;100876.94;6154612;23;20032;-75
2024/03/13 00:43:55;;;;;;;;;;;;;;;6.00;100.00;100880.16;6155124;23;19939;-75
2024/03/13 00:46:23;;;;;;;;;;;;;;;5.99;100.00;100882.97;6154557;23;19916;-76
2024/03/13 00:48:48;;;;;;;;;;;;;;;5.97;100.00;100880.44;6154278;23;20344;-75
2024/03/13 00:51:15;;;;;;;;;;;;;;;5.97;100.00;100875.09;6154484;23;19916;-74
2024/03/13 00:53:40;;;;;;;;;;;;;;;5.98;100.00;100873.28;6154692;23;19939;-75
2024/03/13 00:56:05;;;;;;;;;;;;;;;5.96;100.00;100870.75;6155548;23;20329;-75
2024/03/13 00:58:30;;;;;;;;;;;;;;;6.02;100.00;100866.63;6154947;23;20274;-74
2024/03/13 01:00:56;;;;;;;;;;;;;;;6.01;100.00;100867.63;6153834;23;19952;-74
2024/03/13 01:03:22;;;;;;;;;;;;;;;6.02;100.00;100866.63;6155109;23;19920;-75
2024/03/13 01:05:48;;;;;;;;;;;;;;;5.94;100.00;100870.09;6154650;23;19913;-75
2024/03/13 01:08:14;;;;;;;;;;;;;;;5.95;100.00;100868.28;6153872;23;19923;-75
2024/03/13 01:10:39;;;;;;;;;;;;;;;5.95;100.00;100870.94;6155052;23;20368;-75
2024/03/13 01:13:05;;;;;;;;;;;;;;;5.91;100.00;100873.13;6154471;23;19909;-75
2024/03/13 01:15:30;;;;;;;;;;;;;;;5.94;100.00;100869.28;6154346;23;19940;-76
2024/03/13 01:17:57;;;;;;;;;;;;;;;5.89;100.00;100873.25;6155470;23;19916;-75
2024/03/13 01:20:23;;;;;;;;;;;;;;;5.83;100.00;100873.09;6153730;23;20329;-75
2024/03/13 01:22:49;;;;;;;;;;;;;;;5.81;100.00;100875.09;6153685;23;20325;-75
2024/03/13 01:25:14;;;;;;;;;;;;;;;5.88;100.00;100873.44;6155758;23;19908;-75
2024/03/13 01:39:32;;;;;;;;;;;;;;;5.88;100.00;100860.91;6155573;23;19939;-74
2024/03/13 01:56:04;;;;;;;;;;;;;;;5.71;100.00;100848.53;6153840;23;19923;-74
2024/03/13 01:58:42;;;;;;;;;;;;;;;5.69;100.00;100842.53;6129199;23;19920;-74
2024/03/13 02:03:51;;;;;;;;;;;;;;;5.64;100.00;100831.50;6152055;23;19922;-76
2024/03/13 02:06:19;;;;;;;;;;;;;;;5.68;100.00;100840.84;6153410;23;19991;-75
2024/03/13 02:08:44;;;;;;;;;;;;;;;5.74;100.00;100842.88;6128538;23;19983;-75
2024/03/13 02:11:12;;;;;;;;;;;;;;;5.73;100.00;100835.84;6127027;23;19955;-76
2024/03/13 02:13:40;;;;;;;;;;;;;;;5.74;100.00;100838.34;6153061;23;19987;-75
2024/03/13 02:16:09;;;;;;;;;;;;;;;5.79;100.00;100842.38;6154660;23;19927;-75
2024/03/13 02:18:34;;;;;;;;;;;;;;;5.79;100.00;100840.53;6152258;23;19913;-75
2024/03/13 02:21:01;;;;;;;;;;;;;;;5.78;100.00;100844.22;6153417;23;19916;-74
2024/03/13 02:23:30;;;;;;;;;;;;;;;5.85;100.00;100837.19;6154424;23;19923;-75
2024/03/13 02:25:55;;;;;;;;;;;;;;;5.85;100.00;100845.19;6166350;23;19943;-75
2024/03/13 02:28:33;;;;;;;;;;;;;;;5.92;100.00;100846.22;6155658;23;19950;-75
2024/03/13 02:30:59;;;;;;;;;;;;;;;5.95;100.00;100839.69;6154133;23;19919;-75
2024/03/13 02:33:25;;;;;;;;;;;;;;;6.03;100.00;100847.75;6152827;23;19932;-75
2024/03/13 02:35:50;;;;;;;;;;;;;;;6.12;100.00;100851.25;6152650;23;20225;-75
2024/03/13 02:38:15;;;;;;;;;;;;;;;6.20;100.00;100842.41;6152439;23;19927;-75
2024/03/13 02:40:41;;;;;;;;;;;;;;;6.19;100.00;100841.56;6153443;23;20426;-75
2024/03/13 02:43:06;;;;;;;;;;;;;;;6.21;100.00;100850.25;6152714;23;20214;-75
2024/03/13 02:45:32;;;;;;;;;;;;;;;6.24;100.00;100850.91;6153477;23;19908;-75
2024/03/13 02:47:57;;;;;;;;;;;;;;;6.22;100.00;100841.22;6152861;23;20003;-74
2024/03/13 02:50:22;;;;;;;;;;;;;;;6.22;100.00;100849.25;6152982;23;20329;-75
2024/03/13 02:52:48;;;;;;;;;;;;;;;6.20;100.00;100837.88;6152684;23;19935;-75
2024/03/13 02:55:13;;;;;;;;;;;;;;;6.20;100.00;100832.53;6153609;23;20011;-75
2024/03/13 02:57:39;;;;;;;;;;;;;;;6.23;100.00;100836.72;6152691;23;19920;-74
2024/03/13 03:00:06;;;;;;;;;;;;;;;6.26;100.00;100840.91;6154659;23;19948;-74
2024/03/13 03:02:32;;;;;;;;;;;;;;;6.22;100.00;100841.22;6152857;23;19930;-74
2024/03/13 03:04:57;;;;;;;;;;;;;;;6.25;100.00;100839.22;6152853;23;20541;-75
2024/03/13 03:07:23;;;;;;;;;;;;;;;6.29;100.00;100843.22;6152941;23;19992;-75
2024/03/13 03:09:49;;;;;;;;;;;;;;;6.27;100.00;100843.38;6154491;23;19916;-75
2024/03/13 03:12:14;;;;;;;;;;;;;;;6.29;100.00;100843.22;6152995;23;19947;-75
2024/03/13 03:14:43;;;;;;;;;;;;;;;6.25;100.00;100839.22;6152132;23;20020;-75
2024/03/13 03:17:08;;;;;;;;;;;;;;;6.37;100.00;100841.38;6153789;23;20186;-75
2024/03/13 03:19:37;;;;;;;;;;;;;;;6.31;100.00;100839.38;6152606;23;20333;-75
2024/03/13 03:22:03;;;;;;;;;;;;;;;6.27;100.00;100834.53;6152234;23;19936;-75
2024/03/13 03:24:31;;;;;;;;;;;;;;;6.34;100.00;100833.69;6152860;23;19913;-75
2024/03/13 03:26:57;;;;;;;;;;;;;;;6.29;100.00;100837.88;6152962;23;19932;-75
2024/03/13 03:29:22;;;;;;;;;;;;;;;6.34;100.00;100843.56;6152252;23;19913;-75
2024/03/13 03:31:47;;;;;;;;;;;;;;;6.32;100.00;100849.06;6153767;23;19912;-75
2024/03/13 03:34:12;;;;;;;;;;;;;;;6.39;100.00;100845.72;6152583;23;19922;-75
2024/03/13 03:36:40;;;;;;;;;;;;;;;6.35;100.00;100851.41;6152363;23;19983;-75
2024/03/13 03:39:10;;;;;;;;;;;;;;;6.35;100.00;100845.25;6153971;23;19927;-75
2024/03/13 03:41:38;;;;;;;;;;;;;;;6.25;100.00;100840.06;6152134;23;19913;-75
2024/03/13 03:44:03;;;;;;;;;;;;;;;6.33;100.00;100853.41;6153201;23;19939;-74
2024/03/13 03:46:31;;;;;;;;;;;;;;;6.37;100.00;100848.56;6153798;23;20290;-75
2024/03/13 03:48:58;;;;;;;;;;;;;;;6.43;100.00;100853.25;6151294;23;20016;-75
2024/03/13 03:51:24;;;;;;;;;;;;;;;6.41;100.00;100849.88;6152740;23;19920;-74
2024/03/13 03:53:49;;;;;;;;;;;;;;;6.42;100.00;100851.56;6153365;23;19948;-74
2024/03/13 03:56:14;;;;;;;;;;;;;;;6.41;100.00;100849.88;6153531;23;20340;-75
2024/03/13 03:58:42;;;;;;;;;;;;;;;6.37;100.00;100859.25;6154881;23;19913;-75
2024/03/13 04:01:07;;;;;;;;;;;;;;;6.39;100.00;100856.44;6155706;23;20054;-75
2024/03/13 04:03:34;;;;;;;;;;;;;;;6.36;100.00;100853.09;6151979;23;19917;-74
2024/03/13 04:05:59;;;;;;;;;;;;;;;6.46;100.00;100849.38;6154562;23;20003;-74
2024/03/13 04:08:25;;;;;;;;;;;;;;;6.49;100.00;100851.72;6154528;23;19955;-75
2024/03/13 04:10:50;;;;;;;;;;;;;;;6.49;100.00;100847.22;6153657;23;19966;-75
2024/03/13 04:13:19;;;;;;;;;;;;;;;6.49;100.00;100847.22;6154501;23;19944;-75
2024/03/13 04:15:46;;;;;;;;;;;;;;;6.52;100.00;100857.59;6155196;23;19983;-74
2024/03/13 04:18:12;;;;;;;;;;;;;;;6.52;100.00;100846.03;6153615;23;19912;-73
2024/03/13 04:20:38;;;;;;;;;;;;;;;6.55;100.00;100850.19;6154774;23;19967;-74
2024/03/13 04:23:08;;;;;;;;;;;;;;;6.53;100.00;100856.53;6155673;23;20317;-75
2024/03/13 04:25:36;;;;;;;;;;;;;;;6.55;100.00;100845.69;6153823;23;19909;-75
2024/03/13 04:28:02;;;;;;;;;;;;;;;6.53;100.00;100853.88;6155074;23;19912;-74
2024/03/13 04:30:27;;;;;;;;;;;;;;;6.52;100.00;100849.56;6167338;23;19965;-75
2024/03/13 04:32:52;;;;;;;;;;;;;;;6.51;100.00;100855.91;6164923;23;20387;-75
2024/03/13 04:35:19;;;;;;;;;;;;;;;6.56;100.00;100849.19;6156141;23;19920;-75
2024/03/13 04:37:45;;;;;;;;;;;;;;;6.50;100.00;100858.75;6155469;23;19913;-75
2024/03/13 04:40:10;;;;;;;;;;;;;;;6.53;100.00;100851.19;6154184;23;19919;-75
2024/03/13 04:42:35;;;;;;;;;;;;;;;6.48;100.00;100858.06;6154400;23;19963;-75
2024/03/13 04:45:00;;;;;;;;;;;;;;;6.50;100.00;100859.59;6154505;23;20391;-75
2024/03/13 04:47:26;;;;;;;;;;;;;;;6.58;100.00;100864.09;6153919;23;19912;-74
2024/03/13 04:49:51;;;;;;;;;;;;;;;6.60;100.00;100869.25;6153821;23;20351;-74
2024/03/13 04:52:16;;;;;;;;;;;;;;;6.63;100.00;100872.41;6154447;23;19974;-74
2024/03/13 04:54:41;;;;;;;;;;;;;;;6.65;100.00;100872.25;6154483;23;19960;-74
2024/03/13 04:57:06;;;;;;;;;;;;;;;6.60;100.00;100869.25;6154178;23;20182;-74
2024/03/13 04:59:34;;;;;;;;;;;;;;;6.62;100.00;100873.41;6154755;23;19987;-74
2024/03/13 05:01:59;;;;;;;;;;;;;;;6.70;100.00;100877.09;6153806;23;19912;-75
2024/03/13 05:04:24;;;;;;;;;;;;;;;6.67;100.00;100865.72;6154176;23;19971;-74
2024/03/13 05:06:50;;;;;;;;;;;;;;;6.71;100.00;100876.91;6153151;23;19917;-72
2024/03/13 05:09:18;;;;;;;;;;;;;;;6.52;100.00;100875.44;6154539;23;19971;-74
2024/03/13 05:11:43;;;;;;;;;;;;;;;6.62;100.00;100867.25;6153960;23;19912;-75
2024/03/13 05:14:08;;;;;;;;;;;;;;;6.69;100.00;100878.94;6154012;23;19940;-78
2024/03/13 05:16:34;;;;;;;;;;;;;;;6.77;100.00;100870.06;6154065;23;19913;-76
2024/03/13 05:18:59;;;;;;;;;;;;;;;6.76;100.00;100881.78;6154187;23;19948;-75
2024/03/13 05:21:25;;;;;;;;;;;;;;;6.77;100.00;100876.22;6153143;23;19908;-75
2024/03/13 05:23:51;;;;;;;;;;;;;;;6.80;100.00;100881.25;6154029;23;19920;-75
2024/03/13 05:26:16;;;;;;;;;;;;;;;6.82;100.00;100887.28;6153434;23;19999;-74
2024/03/13 05:28:42;;;;;;;;;;;;;;;6.77;100.00;100886.94;6153034;23;19948;-74
2024/03/13 05:31:09;;;;;;;;;;;;;;;6.87;100.00;100885.94;6153618;23;20027;-74
2024/03/13 05:33:36;;;;;;;;;;;;;;;6.86;100.00;100890.44;6153758;23;19995;-75
2024/03/13 05:36:03;;;;;;;;;;;;;;;6.87;100.00;100884.06;6152794;23;19912;-75
2024/03/13 05:38:28;;;;;;;;;;;;;;;6.87;100.00;100884.06;6154969;23;20292;-76
2024/03/13 05:40:54;;;;;;;;;;;;;;;6.82;100.00;100889.09;6153877;23;19955;-75
2024/03/13 05:43:19;;;;;;;;;;;;;;;6.90;100.00;100877.53;6152970;23;19968;-75
2024/03/13 05:45:45;;;;;;;;;;;;;;;6.81;100.00;100888.28;6154574;23;20372;-75
2024/03/13 05:48:10;;;;;;;;;;;;;;;6.85;100.00;100879.91;6153101;23;20366;-74
2024/03/13 05:50:35;;;;;;;;;;;;;;;6.89;100.00;100886.56;6154234;23;19916;-74
2024/03/13 05:53:01;;;;;;;;;;;;;;;6.96;100.00;100892.91;6154956;23;19923;-74
2024/03/13 05:55:26;;;;;;;;;;;;;;;6.96;100.00;100891.09;6153104;23;20355;-74
2024/03/13 05:57:52;;;;;;;;;;;;;;;7.02;100.00;100891.38;6154544;23;20309;-74
2024/03/13 06:00:19;;;;;;;;;;;;;;;7.01;100.00;100890.56;6154375;23;19917;-75
2024/03/13 06:02:44;;;;;;;;;;;;;;;7.07;100.00;100897.06;6157667;23;19955;-75
2024/03/13 06:05:10;;;;;;;;;;;;;;;7.09;100.00;100900.41;6177982;23;19917;-75
2024/03/13 06:07:41;;;;;;;;;;;;;;;7.09;100.00;100895.88;6180402;23;19936;-75
2024/03/13 06:10:09;;;;;;;;;;;;;;;7.14;100.00;100898.06;6178629;23;19921;-74
2024/03/13 06:12:35;;;;;;;;;;;;;;;7.16;100.00;100905.91;6180625;23;19927;-74
2024/03/13 06:15:06;;;;;;;;;;;;;;;7.20;100.00;100901.88;6159773;23;19913;-75
2024/03/13 06:17:31;;;;;;;;;;;;;;;7.23;100.00;100912.25;6154527;23;19992;-75
2024/03/13 06:19:57;;;;;;;;;;;;;;;7.23;100.00;100906.88;6154879;23;20349;-74
2024/03/13 06:22:22;;;;;;;;;;;;;;;7.24;100.00;100912.06;6155524;23;19951;-75
2024/03/13 06:24:48;;;;;;;;;;;;;;;7.30;100.00;100915.06;6152939;23;19917;-75
2024/03/13 06:27:15;;;;;;;;;;;;;;;7.32;100.00;100908.50;6154090;23;19959;-74
2024/03/13 06:29:56;;;;;;;;;;;;;;;7.26;100.00;100911.88;6155075;23;19969;-74
2024/03/13 06:32:22;;;;;;;;;;;;;;;7.30;100.00;100912.38;6152130;23;19913;-74
2024/03/13 06:34:54;;;;;;;;;;;;;;;7.26;100.00;100915.41;6153643;23;19960;-74
2024/03/13 06:37:20;;;;;;;;;;;;;;;7.38;100.00;100915.00;6154809;23;19912;-75
2024/03/13 06:39:45;;;;;;;;;;;;;;;7.42;100.00;100910.97;6172098;23;19924;-74
2024/03/13 06:42:13;;;;;;;;;;;;;;;7.44;100.00;100909.78;6157712;23;19920;-74
2024/03/13 06:44:39;;;;;;;;;;;;;;;7.55;100.00;100905.06;6154367;23;19917;-74
2024/03/13 06:47:04;;;;;;;;;;;;;;;7.57;100.00;100911.06;6153690;23;19924;-74
2024/03/13 06:49:29;;;;;;;;;;;;;;;7.63;100.00;100912.22;6152669;23;19996;-74
2024/03/13 06:51:55;;;;;;;;;;;;;;;7.64;100.00;100904.00;6154105;23;19921;-74
2024/03/13 06:54:20;;;;;;;;;;;;;;;7.66;100.00;100917.22;6153025;23;19919;-74
2024/03/13 06:56:47;;;;;;;;;;;;;;;7.61;100.00;100919.59;6153742;23;19916;-74
2024/03/13 06:59:16;;;;;;;;;;;;;;;7.70;100.00;100919.38;6153387;23;19936;-75
2024/03/13 07:01:42;;;;;;;;;;;;;;;7.73;100.00;100913.66;6152710;23;20003;-74
2024/03/13 07:04:07;;;;;;;;;;;;;;;7.78;100.00;100915.81;6153309;23;19944;-74
2024/03/13 07:06:34;;;;;;;;;;;;;;;7.82;100.00;100916.28;6153140;23;19913;-74
2024/03/13 07:08:59;;;;;;;;;;;;;;;7.88;100.00;100910.22;6152874;23;19968;-75
2024/03/13 07:11:24;;;;;;;;;;;;;;;7.84;100.00;100917.78;6153055;23;20353;-75
2024/03/13 07:13:50;;;;;;;;;;;;;;;7.76;100.00;100917.00;6153436;23;19912;-75
2024/03/13 07:16:15;;;;;;;;;;;;;;;7.88;100.00;100915.56;6152588;23;19916;-73
2024/03/13 07:18:41;;;;;;;;;;;;;;;7.99;100.00;100915.16;6152510;23;19935;-74
2024/03/13 07:21:09;;;;;;;;;;;;;;;8.08;100.00;100915.94;6152484;23;19931;-73
2024/03/13 07:23:34;;;;;;;;;;;;;;;8.12;100.00;100916.44;6153352;23;19917;-73
2024/03/13 07:26:00;;;;;;;;;;;;;;;8.03;100.00;100913.78;6152997;23;19913;-74
2024/03/13 07:28:26;;;;;;;;;;;;;;;8.13;100.00;100920.75;6152608;23;19920;-75
2024/03/13 07:30:51;;;;;;;;;;;;;;;8.13;100.00;100926.97;6154544;23;19924;-73
2024/03/13 07:33:16;;;;;;;;;;;;;;;8.17;100.00;100927.44;6155279;23;19913;-73
2024/03/13 07:35:42;;;;;;;;;;;;;;;8.20;100.00;100929.75;6154725;23;20010;-73
2024/03/13 07:38:09;;;;;;;;;;;;;;;8.28;100.00;100935.06;6155214;23;20014;-75
2024/03/13 07:40:37;;;;;;;;;;;;;;;8.32;100.00;100941.72;6155488;23;19913;-75
2024/03/13 07:43:08;;;;;;;;;;;;;;;8.37;100.00;100946.56;6154682;23;19916;-75
2024/03/13 07:45:37;;;;;;;;;;;;;;;8.42;100.00;100943.34;6154877;23;19971;-73
2024/03/13 07:48:03;;;;;;;;;;;;;;;8.45;100.00;100954.53;6127580;23;20530;-74
2024/03/13 07:50:28;;;;;;;;;;;;;;;8.46;100.00;100955.38;6154747;23;20233;-74
2024/03/13 07:52:53;;;;;;;;;;;;;;;8.43;100.00;100963.78;6155215;23;19912;-73
2024/03/13 07:55:19;;;;;;;;;;;;;;;8.53;100.00;100956.34;6153872;23;19916;-74
2024/03/13 07:57:44;;;;;;;;;;;;;;;8.55;100.00;100961.56;6155719;23;19952;-74
2024/03/13 08:00:11;;;;;;;;;;;;;;;8.51;100.00;100958.38;6155297;23;20317;-74
2024/03/13 08:02:36;;;;;;;;;;;;;;;8.60;100.00;100962.66;6154186;23;19920;-74
2024/03/13 08:05:02;;;;;;;;;;;;;;;8.61;100.00;100964.34;6155197;23;20392;-74
2024/03/13 08:07:29;;;;;;;;;;;;;;;8.64;100.00;100966.66;6155930;23;20277;-74
2024/03/13 08:09:54;;;;;;;;;;;;;;;8.63;100.00;100970.38;6153543;23;20297;-74
2024/03/13 08:12:19;;;;;;;;;;;;;;;8.68;100.00;100971.66;6155473;23;19922;-74
2024/03/13 08:14:44;;;;;;;;;;;;;;;8.71;100.00;100971.28;6155415;23;20369;-73
2024/03/13 08:17:10;;;;;;;;;;;;;;;8.75;100.00;100980.66;6154244;23;19938;-74
2024/03/13 08:19:35;;;;;;;;;;;;;;;8.85;100.00;100981.22;6154854;23;19940;-74
2024/03/13 08:22:01;;;;;;;;;;;;;;;8.71;100.00;100982.88;6155901;23;19916;-75
2024/03/13 08:24:26;;;;;;;;;;;;;;;8.83;100.00;100975.19;6153829;23;19917;-75
2024/03/13 08:26:51;;;;;;;;;;;;;;;8.84;100.00;100984.09;6155222;23;20234;-75
2024/03/13 08:29:16;;;;;;;;;;;;;;;8.91;100.00;100983.19;6155167;23;19923;-75
2024/03/13 08:31:47;;;;;;;;;;;;;;;8.81;100.00;100985.31;6153532;23;19923;-75
2024/03/13 08:34:14;;;;;;;;;;;;;;;8.76;100.00;100985.00;6154781;23;20284;-74
2024/03/13 08:36:39;;;;;;;;;;;;;;;8.84;100.00;100995.66;6155446;23;20222;-75
2024/03/13 08:39:05;;;;;;;;;;;;;;;8.93;100.00;100994.56;6153520;23;20512;-74
2024/03/13 08:41:31;;;;;;;;;;;;;;;8.91;100.00;100998.47;6154407;23;20317;-74
2024/03/13 08:43:56;;;;;;;;;;;;;;;8.94;100.00;100998.94;6156121;23;20245;-74
2024/03/13 08:46:21;;;;;;;;;;;;;;;8.88;100.00;101002.34;6163650;23;19913;-74
2024/03/13 08:48:46;;;;;;;;;;;;;;;9.01;100.00;101007.09;6162625;23;19917;-75
2024/03/13 08:51:12;;;;;;;;;;;;;;;9.07;100.00;101005.50;6155990;23;19913;-76
2024/03/13 08:53:37;;;;;;;;;;;;;;;9.09;100.00;101006.16;6154132;23;19912;-75
2024/03/13 08:56:02;;;;;;;;;;;;;;;8.92;100.00;101017.06;6154316;23;19920;-74
2024/03/13 08:58:27;;;;;;;;;;;;;;;9.18;100.00;101018.47;6154432;23;19912;-75
2024/03/13 09:00:55;;;;;;;;;;;;;;;9.14;100.00;101013.66;6154038;23;19912;-75
2024/03/13 09:03:20;;;;;;;;;;;;;;;9.23;100.00;101013.41;6154403;23;19912;-74
2024/03/13 09:05:45;;;;;;;;;;;;;;;9.12;100.00;101015.69;6153375;23;19962;-74
2024/03/13 09:08:11;;;;;;;;;;;;;;;9.23;100.00;101012.59;6153630;23;20349;-75
2024/03/13 09:10:36;;;;;;;;;;;;;;;9.52;100.00;101016.28;6154441;23;19919;-75
2024/03/13 09:13:03;;;;;;;;;;;;;;;9.58;100.00;101022.75;6154225;23;20352;-75
2024/03/13 09:15:30;;;;;;;;;;;;;;;9.42;100.00;101016.56;6154239;23;20317;-74
2024/03/13 09:17:55;;;;;;;;;;;;;;;9.35;100.00;101013.78;6154032;23;19963;-74
2024/03/13 09:20:25;;;;;;;;;;;;;;;9.39;100.00;101016.94;6154281;23;19912;-74
2024/03/13 09:22:54;;;;;;;;;;;;;;;9.37;100.00;101024.34;6154118;23;19932;-74
2024/03/13 09:25:19;;;;;;;;;;;;;;;9.52;100.00;101025.19;6127975;23;19913;-74
2024/03/13 09:27:44;;;;;;;;;;;;;;;9.51;100.00;101023.53;6154251;23;20339;-75
2024/03/13 09:30:11;;;;;;;;;;;;;;;9.67;100.00;101019.78;6154321;23;19935;-74
2024/03/13 09:32:36;;;;;;;;;;;;;;;9.75;100.00;101029.59;6153622;23;19983;-74
2024/03/13 09:35:04;;;;;;;;;;;;;;;9.80;100.00;101031.72;6154321;23;19916;-75
2024/03/13 09:37:32;;;;;;;;;;;;;;;9.84;100.00;101033.03;6153612;23;20322;-74
2024/03/13 09:39:58;;;;;;;;;;;;;;;9.80;100.00;101029.88;6153619;23;19940;-74
2024/03/13 09:42:23;;;;;;;;;;;;;;;9.84;100.00;101033.88;6153634;23;19967;-74
2024/03/13 09:44:48;;;;;;;;;;;;;;;9.89;100.00;101035.16;6128072;23;19909;-74
2024/03/13 09:47:14;;;;;;;;;;;;;;;9.81;100.00;101033.41;6127080;23;19959;-75
2024/03/13 09:49:42;;;;;;;;;;;;;;;9.75;100.00;101032.28;6153262;23;19917;-74
2024/03/13 09:52:07;;;;;;;;;;;;;;;9.62;100.00;101035.63;6153461;23;20305;-75
2024/03/13 09:54:35;;;;;;;;;;;;;;;9.53;100.00;101034.91;6152965;23;19916;-74
2024/03/13 09:57:00;;;;;;;;;;;;;;;9.60;100.00;101032.34;6153890;23;20377;-73
2024/03/13 09:59:26;;;;;;;;;;;;;;;9.59;100.00;101035.19;6154313;23;19916;-74
2024/03/13 10:01:51;;;;;;;;;;;;;;;9.73;100.00;101031.66;6152347;23;19919;-74
2024/03/13 10:04:22;;;;;;;;;;;;;;;9.84;100.00;101030.34;6154089;23;19913;-74
2024/03/13 10:06:53;;;;;;;;;;;;;;;9.78;100.00;101039.19;6129519;23;19995;-74
2024/03/13 10:09:18;;;;;;;;;;;;;;;9.98;100.00;101034.84;6152962;23;19919;-74
2024/03/13 10:11:45;;;;;;;;;;;;;;;9.86;100.00;101037.22;6128093;23;19917;-74
2024/03/13 10:14:11;;;;;;;;;;;;;;;9.96;100.00;101036.06;6154632;23;19939;-74
2024/03/13 10:16:37;;;;;;;;;;;;;;;9.87;100.00;101035.34;6126524;23;20261;-74
2024/03/13 10:19:03;;;;;;;;;;;;;;;9.76;100.00;101038.53;6128639;23;19913;-74
2024/03/13 10:21:28;;;;;;;;;;;;;;;9.80;100.00;101035.28;6153905;23;20289;-74
2024/03/13 10:23:54;;;;;;;;;;;;;;;9.96;100.00;101041.44;6152975;23;20302;-74
2024/03/13 10:26:20;;;;;;;;;;;;;;;10.05;100.00;101044.88;6154050;23;20299;-74
2024/03/13 10:28:46;;;;;;;;;;;;;;;10.23;100.00;101047.16;6128487;23;19917;-74
2024/03/13 10:31:15;;;;;;;;;;;;;;;10.12;100.00;101046.63;6151869;23;20715;-74
2024/03/13 10:33:41;;;;;;;;;;;;;;;10.22;100.00;101053.56;6154008;23;19913;-74
2024/03/13 10:36:07;;;;;;;;;;;;;;;10.15;100.00;101054.31;6154023;23;19927;-74
2024/03/13 10:38:33;;;;;;;;;;;;;;;10.02;100.00;101052.28;6153231;23;19919;-74
2024/03/13 10:41:00;;;;;;;;;;;;;;;10.13;100.00;101052.84;6128129;23;20122;-74
2024/03/13 10:43:27;;;;;;;;;;;;;;;10.30;100.00;101065.03;6129461;23;20004;-75
2024/03/13 10:45:53;;;;;;;;;;;;;;;10.42;100.00;101057.31;6152630;23;19913;-75
2024/03/13 10:48:20;;;;;;;;;;;;;;;10.38;100.00;101061.44;6153443;23;19935;-74
2024/03/13 10:50:46;;;;;;;;;;;;;;;10.08;100.00;101061.47;6153108;23;19913;-75
2024/03/13 10:53:11;;;;;;;;;;;;;;;10.12;100.00;101061.94;6154252;23;20244;-75
2024/03/13 10:55:37;;;;;;;;;;;;;;;10.12;100.00;101054.69;6153085;23;19919;-75
2024/03/13 10:58:03;;;;;;;;;;;;;;;10.17;100.00;101059.50;6154037;23;19913;-74
2024/03/13 11:00:31;;;;;;;;;;;;;;;10.10;100.00;101063.97;6152948;23;19912;-75
2024/03/13 11:03:02;;;;;;;;;;;;;;;10.27;100.00;101061.88;6153352;23;19917;-75
2024/03/13 11:05:34;;;;;;;;;;;;;;;10.21;100.00;101059.97;6153085;23;20262;-74
2024/03/13 11:08:00;;;;;;;;;;;;;;;10.07;100.00;101064.34;6128227;23;19963;-74
2024/03/13 11:10:25;;;;;;;;;;;;;;;10.00;100.00;101058.88;6152923;23;19920;-75
2024/03/13 11:12:50;;;;;;;;;;;;;;;9.96;100.00;101069.19;6153323;23;19913;-75
2024/03/13 11:15:18;;;;;;;;;;;;;;;10.18;100.00;101060.34;6127013;23;19924;-75
2024/03/13 11:17:46;;;;;;;;;;;;;;;10.42;100.00;101057.31;6126407;23;20316;-74
2024/03/13 11:20:14;;;;;;;;;;;;;;;10.32;100.00;101062.97;6153822;23;19913;-74
2024/03/13 11:22:40;;;;;;;;;;;;;;;10.36;100.00;101066.13;6152690;23;19919;-74
2024/03/13 11:25:06;;;;;;;;;;;;;;;10.37;100.00;101069.66;6127229;23;19913;-75
2024/03/13 11:27:31;;;;;;;;;;;;;;;10.33;100.00;101066.50;6128619;23;19912;-73
2024/03/13 11:29:56;;;;;;;;;;;;;;;10.39;100.00;101063.09;6127243;23;20329;-73
2024/03/13 11:32:23;;;;;;;;;;;;;;;10.36;100.00;101063.44;6127653;23;19916;-74
2024/03/13 11:34:49;;;;;;;;;;;;;;;10.36;100.00;101070.66;6154140;23;20245;-74
2024/03/13 11:37:14;;;;;;;;;;;;;;;10.41;100.00;101058.34;6153261;23;20339;-75
2024/03/13 11:39:40;;;;;;;;;;;;;;;10.41;100.00;101065.59;6127432;23;19923;-74
2024/03/13 11:42:05;;;;;;;;;;;;;;;10.35;100.00;101067.16;6154243;23;19987;-75
2024/03/13 11:44:31;;;;;;;;;;;;;;;10.32;100.00;101062.97;6153217;23;19917;-75
2024/03/13 11:46:56;;;;;;;;;;;;;;;10.41;100.00;101054.81;6152952;23;19927;-75
2024/03/13 11:49:21;;;;;;;;;;;;;;;10.45;100.00;101053.44;6128574;23;20238;-74
2024/03/13 11:52:02;;;;;;;;;;;;;;;10.18;100.00;101049.56;6153722;23;19912;-75
2024/03/13 11:54:30;;;;;;;;;;;;;;;10.46;100.00;101055.09;6153424;23;19917;-75
2024/03/13 11:57:12;;;;;;;;;;;;;;;10.24;100.00;101044.28;6154948;23;19917;-74
2024/03/13 11:59:53;;;;;;;;;;;;;;;10.29;100.00;101052.63;6153332;23;19912;-75
2024/03/13 12:02:27;;;;;;;;;;;;;;;10.10;100.00;101051.34;6152061;23;19912;-75
2024/03/13 12:04:54;;;;;;;;;;;;;;;10.05;100.00;101051.09;6154054;23;19912;-74
2024/03/13 12:07:19;;;;;;;;;;;;;;;10.05;100.00;101051.09;6153169;23;20329;-74
2024/03/13 12:09:44;;;;;;;;;;;;;;;10.15;100.00;101065.06;6152887;23;19912;-75
2024/03/13 12:12:12;;;;;;;;;;;;;;;10.13;100.00;101064.41;6154884;23;19977;-75
2024/03/13 12:14:38;;;;;;;;;;;;;;;9.98;100.00;101055.56;6127048;23;19909;-74
2024/03/13 12:17:05;;;;;;;;;;;;;;;10.18;100.00;101057.66;6153826;23;20354;-74
2024/03/13 12:19:30;;;;;;;;;;;;;;;10.28;100.00;101048.25;6155568;23;19913;-75
2024/03/13 12:21:57;;;;;;;;;;;;;;;10.68;100.00;101044.34;6154896;23;19916;-75
2024/03/13 12:24:22;;;;;;;;;;;;;;;10.73;100.00;101044.56;6154840;23;19912;-74
2024/03/13 12:26:50;;;;;;;;;;;;;;;10.69;100.00;101045.97;6130720;23;19999;-75
2024/03/13 12:29:16;;;;;;;;;;;;;;;10.50;100.00;101047.47;6154125;23;19916;-74
2024/03/13 12:31:42;;;;;;;;;;;;;;;10.48;100.00;101044.13;6129507;23;19932;-75
2024/03/13 12:34:07;;;;;;;;;;;;;;;10.49;100.00;101053.88;6155806;23;20445;-75
2024/03/13 12:36:43;;;;;;;;;;;;;;;10.26;100.00;101055.69;6131012;23;19920;-74
2024/03/13 12:39:10;;;;;;;;;;;;;;;10.14;100.00;101054.50;6155760;23;19967;-75
2024/03/13 12:41:38;;;;;;;;;;;;;;;10.03;100.00;101047.75;6157375;23;19912;-75
2024/03/13 12:44:06;;;;;;;;;;;;;;;9.99;100.00;101057.22;6153631;23;19916;-74
2024/03/13 12:46:34;;;;;;;;;;;;;;;9.97;100.00;101054.69;6154534;23;19913;-74
2024/03/13 12:48:59;;;;;;;;;;;;;;;9.95;100.00;101059.47;6156254;23;19917;-75
2024/03/13 12:51:26;;;;;;;;;;;;;;;9.99;100.00;101062.59;6129239;23;19920;-75
2024/03/13 12:53:52;;;;;;;;;;;;;;;10.07;100.00;101059.78;6155002;23;20333;-74
2024/03/13 12:56:18;;;;;;;;;;;;;;;10.05;100.00;101061.84;6130963;23;19919;-74
2024/03/13 12:58:43;;;;;;;;;;;;;;;10.11;100.00;101066.47;6160176;23;19917;-74
2024/03/13 13:01:09;;;;;;;;;;;;;;;10.12;100.00;101056.56;6137972;23;20296;-74